Skip Navigation Links
NOAA logo - Click to go to the NOAA homepage
NOAA's National Weather Service
Alaska Aviation Weather Unit
  NWS logo - Click to go to the NWS homepage
Left Navbar Graphic     08 AKDT = 16 GMT

   
NOAA is celebrating 200 years of science, service, and stewardship. Visit the NOAA 200th celebration Web site to learn more.
USA.gov is the U.S. Government's official Web portal to all Federal, state and local government Web resources and services.
Facebook
NWS on Facebook

Important Change Regarding the AAWU Web Presence

 

Over the last several months, the AAWU has been working to navigate its webpages to a nationally supported server. Security, as well as other needs, have necessitated the change.  In the process, we have made an effort to enhance the functionality of our website, as well as some of our products. As of June 20, 2017, aawu.arh.noaa.gov will be discontinued. The new AAWU web address is weather.gov/aawu. It is now live and will run in-parallel with the old site until it is discontinued. Please send any feedback or questions regarding the new webpages to nws.ar.aawu.webauthors@noaa.gov.  Thank you for your patience during this time of transition.
AAWU Home :: Display TAF Add Bookmark
TAF PAEN 231138Z 2312/2412 20011KT P6SM SCT100 BKN200
     FM231800 22017G24KT P6SM SCT080 BKN150
     FM240600 20010KT P6SM BKN100
     FM241000 16003KT P6SM -RA OVC050=

METAR PAEN 231053Z AUTO 17012KT 10SM CLR 06/02 A2998= SPECI PAEN 231142Z AUTO 17009KT 10SM BKN018 06/02 A2998 RMK AO2 T00560022 TSNO= METAR PAEN 231153Z AUTO 17008KT 10SM BKN018 05/02 A2998= PAEN 231201Z AUTO 17009KT 10SM SCT018 06/02 A2998= METAR PAEN 231253Z AUTO 17010KT 10SM CLR 05/02 A2999= METAR PAEN 231353Z 16010KT 10SM CLR 05/02 A2998= METAR PAEN 231453Z 18012G18KT 10SM CLR 06/03 A2999= METAR PAEN 231553Z 19019G24KT 10SM BKN075 07/01 A2999=
 Alaska TAF Map

NOAA's National Weather Service
Alaska Aviation Weather Unit
6930 Sand Lake Road
Anchorage, AK 99502-1845
Disclaimer
Credits
Glossary
Privacy Policy
About Us
Career Opportunities
Contact AAWU Internet Services Site last modified: April, 17th 2012